Terminal Aerodrome Forecast
Issued by NWS Houston/Galveston, TX

Home | Current Version | Previous Version | Text Only | Print | Product List | Glossary On
Versions: 1 2 3 4 5 6 7 8 9 10 11 12 13 14
000
FTUS44 KHGX 141721
TAFGLS
TAF
KGLS 141721Z 1418/1518 14004KT P6SM SCT040 OVC200
     FM150100 36007KT P6SM SCT050 OVC120
     FM150700 01016G26KT P6SM VCSH OVC060
      TEMPO 1510/1514 SHRA=

USA.gov is the U.S. government's official web portal to all federal, state and local government web resources and services.